createdAt,value
2022-11-05T00:01:30.149Z,2.30
2022-11-05T00:03:56.755Z,3.23
2022-11-05T00:06:23.291Z,2.80
2022-11-05T00:08:51.194Z,4.17
2022-11-05T00:11:18.417Z,2.30
2022-11-05T00:13:45.235Z,2.60
2022-11-05T00:16:11.712Z,2.43
2022-11-05T00:18:38.260Z,2.70
2022-11-05T00:21:05.033Z,2.33
2022-11-05T00:23:31.539Z,2.60
2022-11-05T00:26:00.616Z,3.83
2022-11-05T00:28:29.080Z,2.60
2022-11-05T00:31:00.623Z,5.70
2022-11-05T00:33:27.403Z,3.63
2022-11-05T00:35:54.016Z,2.73
2022-11-05T00:38:20.523Z,4.17
2022-11-05T00:40:47.019Z,3.00
2022-11-05T00:43:14.872Z,3.03
2022-11-05T00:45:41.378Z,3.00
2022-11-05T00:48:08.071Z,2.80
2022-11-05T00:50:34.875Z,3.57
2022-11-05T00:53:01.874Z,3.13
2022-11-05T00:55:31.498Z,4.30
2022-11-05T00:57:58.030Z,3.63
2022-11-05T01:00:28.534Z,3.20
2022-11-05T01:02:57.697Z,3.10
2022-11-05T01:05:24.226Z,2.90
2022-11-05T01:07:51.729Z,3.50
2022-11-05T01:10:18.318Z,3.60
2022-11-05T01:12:44.813Z,2.73
2022-11-05T01:15:11.339Z,3.30
2022-11-05T01:17:39.162Z,2.90
2022-11-05T01:20:06.183Z,4.13
2022-11-05T01:22:32.692Z,2.33
2022-11-05T01:24:59.166Z,3.30
2022-11-05T01:27:25.685Z,2.40
2022-11-05T01:29:52.204Z,3.20
2022-11-05T01:32:18.702Z,2.40
2022-11-05T01:34:46.547Z,2.53
2022-11-05T01:37:13.021Z,2.53
2022-11-05T01:39:39.530Z,1.90
2022-11-05T01:42:13.920Z,2.60
2022-11-05T01:44:54.301Z,2.30
2022-11-05T01:47:49.397Z,2.97
2022-11-05T01:50:28.512Z,2.30
2022-11-05T01:53:00.143Z,2.97
2022-11-05T01:55:31.377Z,3.00
2022-11-05T01:58:00.331Z,2.20
2022-11-05T02:00:26.837Z,2.53
2022-11-05T02:02:53.692Z,2.60
2022-11-05T02:05:22.220Z,2.73
2022-11-05T02:07:49.414Z,2.40
2022-11-05T02:10:16.736Z,3.43
2022-11-05T02:12:45.605Z,3.57
2022-11-05T02:15:12.791Z,2.23
2022-11-05T02:17:48.396Z,2.30
2022-11-05T02:20:33.548Z,2.83
2022-11-05T02:23:35.080Z,2.50
2022-11-05T02:26:31.328Z,2.33
2022-11-05T02:29:26.218Z,3.07
2022-11-05T02:32:01.118Z,3.53
2022-11-05T02:34:35.410Z,2.67
2022-11-05T02:37:09.023Z,2.63
2022-11-05T02:39:42.877Z,3.00
2022-11-05T02:42:16.335Z,2.57
2022-11-05T02:44:49.218Z,2.63
2022-11-05T02:47:24.863Z,2.53
2022-11-05T02:49:57.365Z,3.63
2022-11-05T02:52:32.094Z,3.87
2022-11-05T02:55:05.829Z,3.10
2022-11-05T02:57:35.945Z,3.60
2022-11-05T03:00:05.932Z,3.10
2022-11-05T03:02:34.156Z,4.17
2022-11-05T03:05:02.234Z,2.70
2022-11-05T03:07:38.048Z,3.03
2022-11-05T03:10:18.407Z,3.00
2022-11-05T03:12:55.914Z,3.00
2022-11-05T03:15:33.762Z,2.77
2022-11-05T03:18:09.499Z,3.37
2022-11-05T03:20:39.545Z,3.30
2022-11-05T03:23:12.691Z,2.87
2022-11-05T03:25:43.804Z,2.90
2022-11-05T03:28:12.286Z,3.80
2022-11-05T03:30:40.820Z,3.37
2022-11-05T03:33:13.580Z,3.60
2022-11-05T03:35:46.366Z,2.67
2022-11-05T03:38:19.564Z,2.83
2022-11-05T03:40:49.641Z,3.30
2022-11-05T03:43:17.381Z,3.63
2022-11-05T03:45:48.440Z,2.50
2022-11-05T03:48:18.267Z,3.20
2022-11-05T03:50:51.085Z,3.07
2022-11-05T03:53:22.822Z,2.63
2022-11-05T03:55:59.253Z,2.40
2022-11-05T03:58:26.979Z,2.40
2022-11-05T04:00:53.702Z,2.53
2022-11-05T04:03:21.563Z,3.13
2022-11-05T04:05:48.392Z,2.90
2022-11-05T04:08:14.910Z,2.93
2022-11-05T04:10:41.473Z,2.60
2022-11-05T04:13:10.728Z,2.63
2022-11-05T04:15:37.435Z,3.90
2022-11-05T04:18:03.944Z,2.73
2022-11-05T04:20:31.803Z,2.50
2022-11-05T04:22:58.976Z,2.47
2022-11-05T04:25:25.488Z,2.57
2022-11-05T04:27:52.020Z,2.60
2022-11-05T04:30:19.519Z,4.73
2022-11-05T04:32:56.886Z,3.00
2022-11-05T04:35:23.441Z,2.67
2022-11-05T04:37:51.454Z,2.53
2022-11-05T04:40:17.980Z,2.97
2022-11-05T04:42:44.559Z,3.73
2022-11-05T04:45:11.116Z,3.47
2022-11-05T04:47:37.717Z,2.90
2022-11-05T04:50:04.468Z,3.27
2022-11-05T04:52:30.972Z,2.83
2022-11-05T04:54:58.823Z,2.67
2022-11-05T04:57:25.321Z,2.27
2022-11-05T04:59:51.798Z,3.20
2022-11-05T05:02:18.373Z,3.60
2022-11-05T05:04:45.022Z,3.87
2022-11-05T05:07:11.508Z,3.67
2022-11-05T05:09:38.032Z,4.63
2022-11-05T05:12:06.874Z,3.03
2022-11-05T05:14:33.527Z,3.87
2022-11-05T05:17:00.093Z,3.47
2022-11-05T05:19:26.904Z,3.07
2022-11-05T05:21:53.390Z,4.53
2022-11-05T05:24:21.002Z,3.67
2022-11-05T05:26:48.962Z,3.10
2022-11-05T05:29:18.183Z,3.80
2022-11-05T05:31:44.987Z,3.30
2022-11-05T05:34:13.244Z,3.60
2022-11-05T05:36:39.911Z,3.77
2022-11-05T05:39:06.717Z,3.53
2022-11-05T05:41:33.369Z,3.63
2022-11-05T05:43:59.931Z,4.57
2022-11-05T05:46:27.899Z,4.20
2022-11-05T05:48:54.381Z,3.87
2022-11-05T05:51:20.863Z,3.53
2022-11-05T05:53:47.370Z,3.87
2022-11-05T05:56:14.034Z,4.13
2022-11-05T05:58:41.068Z,3.77
2022-11-05T06:01:12.964Z,3.47
2022-11-05T06:03:43.547Z,3.73
2022-11-05T06:06:12.113Z,4.30
2022-11-05T06:08:38.870Z,4.00
2022-11-05T06:11:06.504Z,4.63
2022-11-05T06:13:33.819Z,3.70
2022-11-05T06:16:01.138Z,4.30
2022-11-05T06:18:27.624Z,3.20
2022-11-05T06:20:55.512Z,4.07
2022-11-05T06:23:22.299Z,3.07
2022-11-05T06:25:48.796Z,3.53
2022-11-05T06:28:15.272Z,3.83
2022-11-05T06:30:41.765Z,3.83
2022-11-05T06:33:08.564Z,3.67
2022-11-05T06:35:36.170Z,3.67
2022-11-05T06:38:04.046Z,3.00
2022-11-05T06:40:30.532Z,3.93
2022-11-05T06:42:57.033Z,3.63
2022-11-05T06:45:23.552Z,3.83
2022-11-05T06:47:55.490Z,3.40
2022-11-05T06:50:22.028Z,3.67
2022-11-05T06:52:53.378Z,3.30
2022-11-05T06:55:21.410Z,3.40
2022-11-05T06:57:47.894Z,3.80
2022-11-05T07:00:15.377Z,2.93
2022-11-05T07:02:42.300Z,4.23
2022-11-05T07:05:09.293Z,4.00
2022-11-05T07:07:35.798Z,3.17
2022-11-05T07:10:02.319Z,4.10
2022-11-05T07:12:30.149Z,3.47
2022-11-05T07:14:56.639Z,3.40
2022-11-05T07:17:23.163Z,3.57
2022-11-05T07:19:49.649Z,3.43
2022-11-05T07:22:16.171Z,4.30
2022-11-05T07:24:42.676Z,6.07
2022-11-05T07:27:09.197Z,4.20
2022-11-05T07:29:37.027Z,4.60
2022-11-05T07:32:03.735Z,4.10
2022-11-05T07:34:30.236Z,3.67
2022-11-05T07:36:56.753Z,3.87
2022-11-05T07:39:23.279Z,4.67
2022-11-05T07:41:51.760Z,4.57
2022-11-05T07:44:18.226Z,4.30
2022-11-05T07:46:46.081Z,4.90
2022-11-05T07:49:12.726Z,4.23
2022-11-05T07:51:39.262Z,4.83
2022-11-05T07:54:05.830Z,4.43
2022-11-05T07:56:32.340Z,5.13
2022-11-05T07:58:58.967Z,5.13
2022-11-05T08:01:25.624Z,4.83
2022-11-05T08:03:53.741Z,5.27
2022-11-05T08:06:20.251Z,4.67
2022-11-05T08:08:46.837Z,4.83
2022-11-05T08:11:13.336Z,6.57
2022-11-05T08:13:39.841Z,6.33
2022-11-05T08:16:06.987Z,4.97
2022-11-05T08:18:33.732Z,5.07
2022-11-05T08:21:03.597Z,5.03
2022-11-05T08:23:31.425Z,4.93
2022-11-05T08:25:58.473Z,4.87
2022-11-05T08:28:26.161Z,4.60
2022-11-05T08:30:54.405Z,4.80
2022-11-05T08:33:21.434Z,5.80
2022-11-05T08:35:48.616Z,5.83
2022-11-05T08:38:18.828Z,6.63
2022-11-05T08:40:53.239Z,4.90
2022-11-05T08:43:19.779Z,6.67
2022-11-05T08:45:46.316Z,5.87
2022-11-05T08:48:14.769Z,5.43
2022-11-05T08:50:41.985Z,5.20
2022-11-05T08:53:09.465Z,5.40
2022-11-05T08:55:37.783Z,6.97
2022-11-05T08:58:06.045Z,5.73
2022-11-05T09:00:34.988Z,5.47
2022-11-05T09:03:03.572Z,6.03
2022-11-05T09:05:31.250Z,5.47
2022-11-05T09:08:01.392Z,5.77
2022-11-05T09:10:28.297Z,5.27
2022-11-05T09:12:56.421Z,5.27
2022-11-05T09:15:22.942Z,5.97
2022-11-05T09:17:49.480Z,7.47
2022-11-05T09:20:16.005Z,6.30
2022-11-05T09:22:43.578Z,4.87
2022-11-05T09:25:10.605Z,5.83
2022-11-05T09:27:37.194Z,5.60
2022-11-05T09:30:06.141Z,6.27
2022-11-05T09:32:32.682Z,5.20
2022-11-05T09:34:59.361Z,6.87
2022-11-05T09:37:25.932Z,6.23
2022-11-05T09:39:52.491Z,5.47
2022-11-05T09:42:21.017Z,9.03
2022-11-05T09:44:51.519Z,9.00
2022-11-05T09:47:23.351Z,5.00
2022-11-05T09:49:53.225Z,5.77
2022-11-05T09:52:22.184Z,5.83
2022-11-05T09:54:49.152Z,5.80
2022-11-05T09:57:20.249Z,4.37
2022-11-05T09:59:50.452Z,8.23
2022-11-05T10:02:21.741Z,6.20
2022-11-05T10:04:52.843Z,6.60
2022-11-05T10:07:22.818Z,6.93
2022-11-05T10:09:53.465Z,5.43
2022-11-05T10:12:24.164Z,5.63
2022-11-05T10:14:58.090Z,6.43
2022-11-05T10:17:27.513Z,6.13
2022-11-05T10:20:02.441Z,5.73
2022-11-05T10:22:28.956Z,6.07
2022-11-05T10:24:55.837Z,5.57
2022-11-05T10:27:25.381Z,6.13
2022-11-05T10:29:52.163Z,6.03
2022-11-05T10:32:28.229Z,5.73
2022-11-05T10:34:58.964Z,6.83
2022-11-05T10:37:26.612Z,7.53
2022-11-05T10:39:53.776Z,7.60
2022-11-05T10:42:33.717Z,9.80
2022-11-05T10:45:09.015Z,6.40
2022-11-05T10:47:48.392Z,5.03
2022-11-05T10:50:18.720Z,6.20
2022-11-05T10:52:55.284Z,6.03
2022-11-05T10:55:25.416Z,6.57
2022-11-05T10:57:52.560Z,5.93
2022-11-05T11:00:24.996Z,5.43
2022-11-05T11:02:55.621Z,4.93
2022-11-05T11:05:26.203Z,7.90
2022-11-05T11:07:56.328Z,6.17
2022-11-05T11:10:23.857Z,6.50
2022-11-05T11:12:51.022Z,5.43
2022-11-05T11:15:24.711Z,7.60
2022-11-05T11:17:51.184Z,6.57
2022-11-05T11:20:26.790Z,7.20
2022-11-05T11:23:01.946Z,10.03
2022-11-05T11:25:31.324Z,6.43
2022-11-05T11:28:02.714Z,6.83
2022-11-05T11:30:29.326Z,8.23
2022-11-05T11:32:59.740Z,10.80
2022-11-05T11:35:27.623Z,6.90
2022-11-05T11:37:55.831Z,8.17
2022-11-05T11:40:24.999Z,7.83
2022-11-05T11:42:54.668Z,5.60
2022-11-05T11:45:27.005Z,9.47
2022-11-05T11:47:56.397Z,8.37
2022-11-05T11:50:36.596Z,6.03
2022-11-05T11:53:26.802Z,7.67
2022-11-05T11:55:59.169Z,6.67
2022-11-05T11:58:40.370Z,5.03
2022-11-05T12:01:40.515Z,7.03
2022-11-05T12:04:19.577Z,6.03
2022-11-05T12:06:57.349Z,6.70
2022-11-05T12:09:30.721Z,5.20
2022-11-05T12:12:03.101Z,7.17
2022-11-05T12:14:45.135Z,5.40
2022-11-05T12:17:29.895Z,5.43
2022-11-05T12:20:15.793Z,7.30
2022-11-05T12:23:07.019Z,6.97
2022-11-05T12:25:42.066Z,7.53
2022-11-05T12:28:19.046Z,5.37
2022-11-05T12:30:53.115Z,7.87
2022-11-05T12:33:26.945Z,7.50
2022-11-05T12:36:05.920Z,7.83
2022-11-05T12:39:02.337Z,6.43
2022-11-05T12:41:33.737Z,5.87
2022-11-05T12:44:14.400Z,6.43
2022-11-05T12:46:52.744Z,9.70
2022-11-05T12:49:31.330Z,9.40
2022-11-05T12:52:22.105Z,8.37
2022-11-05T12:55:00.411Z,6.73
2022-11-05T12:57:28.566Z,6.60
2022-11-05T13:00:01.955Z,8.70
2022-11-05T13:02:37.540Z,8.57
2022-11-05T13:05:06.461Z,8.90
2022-11-05T13:07:37.325Z,8.83
2022-11-05T13:10:13.495Z,7.50
2022-11-05T13:12:42.323Z,5.73
2022-11-05T13:15:20.435Z,15.33
2022-11-05T13:17:53.458Z,27.67
2022-11-05T13:20:22.691Z,11.90
2022-11-05T13:22:56.127Z,6.50
2022-11-05T13:25:27.829Z,6.57
2022-11-05T13:27:59.084Z,32.87
2022-11-05T13:30:29.937Z,10.40
2022-11-05T13:33:01.885Z,7.80
2022-11-05T13:35:31.434Z,7.17
2022-11-05T13:38:04.303Z,11.20
2022-11-05T13:40:51.889Z,9.50
2022-11-05T13:43:32.978Z,4.77
2022-11-05T13:46:16.477Z,4.33
2022-11-05T13:49:10.723Z,4.63
2022-11-05T13:51:48.294Z,5.50
2022-11-05T13:54:40.407Z,4.93
2022-11-05T13:57:26.326Z,6.70
2022-11-05T14:00:05.349Z,6.63
2022-11-05T14:02:38.511Z,7.67
2022-11-05T14:05:06.879Z,4.30
2022-11-05T14:07:36.094Z,4.53
2022-11-05T14:10:11.868Z,3.43
2022-11-05T14:12:40.377Z,4.50
2022-11-05T14:15:16.000Z,5.73
2022-11-05T14:17:57.889Z,4.03
2022-11-05T14:20:37.148Z,6.13
2022-11-05T14:23:36.236Z,21.03
2022-11-05T14:26:22.200Z,22.10
2022-11-05T14:29:09.609Z,16.43
2022-11-05T14:32:07.045Z,7.03
2022-11-05T14:34:42.743Z,4.23
2022-11-05T14:37:27.382Z,3.77
2022-11-05T14:39:54.798Z,2.87
2022-11-05T14:42:25.135Z,2.10
2022-11-05T14:45:03.503Z,3.90
2022-11-05T14:47:33.277Z,2.87
2022-11-05T14:50:03.975Z,3.27
2022-11-05T14:52:31.650Z,4.37
2022-11-05T14:54:58.457Z,2.47
2022-11-05T14:58:02.412Z,2.97
2022-11-05T15:00:47.645Z,4.00
2022-11-05T15:03:39.761Z,3.93
2022-11-05T15:06:28.355Z,6.40
2022-11-05T15:09:05.097Z,7.03
2022-11-05T15:11:35.504Z,6.00
2022-11-05T15:14:05.502Z,5.03
2022-11-05T15:16:36.453Z,3.70
2022-11-05T15:19:04.891Z,4.03
2022-11-05T15:21:34.353Z,6.70
2022-11-05T15:24:02.358Z,18.93
2022-11-05T15:26:38.916Z,24.27
2022-11-05T15:29:16.385Z,18.93
2022-11-05T15:31:45.522Z,9.07
2022-11-05T15:34:18.873Z,4.57
2022-11-05T15:36:50.899Z,4.83
2022-11-05T15:39:29.681Z,5.00
2022-11-05T15:41:56.569Z,8.50
2022-11-05T15:44:24.826Z,7.50
2022-11-05T15:47:06.993Z,4.47
2022-11-05T15:49:33.750Z,15.43
2022-11-05T15:52:00.340Z,6.60
2022-11-05T15:54:31.052Z,2.63
2022-11-05T15:56:59.685Z,3.13
2022-11-05T15:59:28.201Z,1.10
2022-11-05T16:01:57.679Z,1.93
2022-11-05T16:04:28.776Z,1.10
2022-11-05T16:06:59.121Z,2.17
2022-11-05T16:09:28.299Z,0.73
2022-11-05T16:12:14.212Z,1.13
2022-11-05T16:14:41.478Z,0.90
2022-11-05T16:17:19.516Z,0.90
2022-11-05T16:19:48.599Z,0.67
2022-11-05T16:22:15.250Z,3.10
2022-11-05T16:24:41.850Z,2.70
2022-11-05T16:27:19.131Z,3.40
2022-11-05T16:29:51.629Z,2.13
2022-11-05T16:32:25.397Z,2.60
2022-11-05T16:34:59.930Z,2.43
2022-11-05T16:37:27.487Z,3.27
2022-11-05T16:39:55.376Z,2.33
2022-11-05T16:42:39.882Z,3.10
2022-11-05T16:45:10.106Z,3.17
2022-11-05T16:47:36.704Z,5.23
2022-11-05T16:50:17.229Z,3.63
2022-11-05T16:52:44.912Z,5.80
2022-11-05T16:55:11.560Z,6.30
2022-11-05T16:57:38.175Z,5.77
2022-11-05T17:00:06.309Z,5.07
2022-11-05T17:02:32.991Z,8.60
2022-11-05T17:04:59.582Z,8.17
2022-11-05T17:07:27.419Z,6.27
2022-11-05T17:09:53.912Z,5.47
2022-11-05T17:12:20.436Z,5.70
2022-11-05T17:14:46.956Z,9.83
2022-11-05T17:17:13.488Z,6.33
2022-11-05T17:19:40.022Z,5.30
2022-11-05T17:22:06.515Z,3.33
2022-11-05T17:24:34.382Z,4.07
2022-11-05T17:27:00.930Z,3.53
2022-11-05T17:29:27.417Z,3.00
2022-11-05T17:31:53.932Z,2.60
2022-11-05T17:34:20.432Z,4.57
2022-11-05T17:36:46.930Z,3.33
2022-11-05T17:39:13.438Z,2.63
2022-11-05T17:41:41.352Z,2.60
2022-11-05T17:44:10.727Z,1.80
2022-11-05T17:46:37.275Z,2.40
2022-11-05T17:49:03.755Z,1.90
2022-11-05T17:51:30.326Z,1.87
2022-11-05T17:53:56.826Z,2.73
2022-11-05T17:56:32.465Z,3.23
2022-11-05T17:59:01.947Z,3.47
2022-11-05T18:01:31.277Z,2.53
2022-11-05T18:03:59.548Z,4.87
2022-11-05T18:06:27.912Z,4.43
2022-11-05T18:08:54.423Z,3.20
2022-11-05T18:11:20.973Z,2.60
2022-11-05T18:13:47.496Z,2.73
2022-11-05T18:16:15.386Z,3.67
2022-11-05T18:18:41.936Z,2.97
2022-11-05T18:21:08.441Z,2.80
2022-11-05T18:23:34.989Z,3.83
2022-11-05T18:26:01.476Z,3.17
2022-11-05T18:28:28.000Z,4.93
2022-11-05T18:30:54.536Z,6.73
2022-11-05T18:33:22.472Z,8.13
2022-11-05T18:35:48.979Z,5.73
2022-11-05T18:38:15.528Z,5.83
2022-11-05T18:40:42.031Z,5.67
2022-11-05T18:43:08.578Z,5.17
2022-11-05T18:45:35.160Z,7.03
2022-11-05T18:48:01.956Z,5.73
2022-11-05T18:50:30.255Z,6.67
2022-11-05T18:52:57.183Z,5.60
2022-11-05T18:55:24.262Z,5.63
2022-11-05T18:57:50.750Z,5.67
2022-11-05T19:00:17.617Z,5.67
2022-11-05T19:02:44.218Z,5.17
2022-11-05T19:05:40.665Z,5.80
2022-11-05T19:07:58.968Z,8.80
2022-11-05T19:10:26.229Z,10.27
2022-11-05T19:12:53.003Z,8.67
2022-11-05T19:15:19.529Z,5.07
2022-11-05T19:17:46.076Z,5.17
2022-11-05T19:20:12.867Z,5.43
2022-11-05T19:22:39.397Z,5.90
2022-11-05T19:25:08.066Z,6.30
2022-11-05T19:27:35.266Z,5.70
2022-11-05T19:30:01.902Z,5.67
2022-11-05T19:32:28.426Z,5.40
2022-11-05T19:34:54.907Z,7.97
2022-11-05T19:37:21.427Z,9.63
2022-11-05T19:39:47.965Z,7.53
2022-11-05T19:42:16.036Z,6.00
2022-11-05T19:44:43.055Z,9.07
2022-11-05T19:47:10.014Z,8.20
2022-11-05T19:49:36.534Z,7.67
2022-11-05T19:52:03.145Z,5.53
2022-11-05T19:54:29.684Z,5.93
2022-11-05T19:56:56.271Z,6.70
2022-11-05T19:59:24.213Z,5.23
2022-11-05T20:01:50.878Z,5.63
2022-11-05T20:04:17.506Z,7.50
2022-11-05T20:06:44.102Z,7.27
2022-11-05T20:09:21.655Z,6.60
2022-11-05T20:11:48.900Z,6.63
2022-11-05T20:14:15.436Z,7.73
2022-11-05T20:16:44.976Z,7.63
2022-11-05T20:19:14.753Z,7.57
2022-11-05T20:21:41.810Z,8.63
2022-11-05T20:24:08.440Z,24.63
2022-11-05T20:26:35.243Z,27.83
2022-11-05T20:29:01.869Z,20.23
2022-11-05T20:31:28.415Z,15.23
2022-11-05T20:33:56.512Z,8.57
2022-11-05T20:36:24.384Z,7.47
2022-11-05T20:38:52.330Z,6.13
2022-11-05T20:41:19.054Z,6.80
2022-11-05T20:43:45.920Z,5.93
2022-11-05T20:46:15.370Z,5.03
2022-11-05T20:48:42.458Z,5.43
2022-11-05T20:51:12.456Z,6.97
2022-11-05T20:53:39.304Z,5.17
2022-11-05T20:56:08.059Z,5.70
2022-11-05T20:58:35.748Z,5.80
2022-11-05T21:01:05.321Z,5.03
2022-11-05T21:03:32.253Z,6.83
2022-11-05T21:05:58.777Z,6.87
2022-11-05T21:08:27.108Z,6.23
2022-11-05T21:10:53.896Z,5.00
2022-11-05T21:13:20.600Z,5.70
2022-11-05T21:15:49.061Z,5.37
2022-11-05T21:18:15.990Z,5.83
2022-11-05T21:20:42.532Z,5.07
2022-11-05T21:23:09.050Z,5.70
2022-11-05T21:25:39.367Z,6.63
2022-11-05T21:28:06.208Z,5.20
2022-11-05T21:30:33.047Z,6.03
2022-11-05T21:32:59.986Z,5.23
2022-11-05T21:35:26.485Z,5.03
2022-11-05T21:37:53.029Z,6.50
2022-11-05T21:40:19.562Z,6.17
2022-11-05T21:42:47.459Z,5.23
2022-11-05T21:45:13.976Z,5.07
2022-11-05T21:47:40.499Z,6.97
2022-11-05T21:50:08.149Z,5.63
2022-11-05T21:52:34.678Z,5.63
2022-11-05T21:55:01.187Z,6.10
2022-11-05T21:57:27.745Z,5.07
2022-11-05T21:59:55.705Z,5.60
2022-11-05T22:02:23.834Z,4.77
2022-11-05T22:04:52.102Z,6.50
2022-11-05T22:07:20.506Z,5.13
2022-11-05T22:09:47.395Z,4.77
2022-11-05T22:12:14.135Z,6.17
2022-11-05T22:14:40.860Z,5.90
2022-11-05T22:17:09.490Z,5.77
2022-11-05T22:19:36.523Z,4.40
2022-11-05T22:22:04.140Z,4.70
2022-11-05T22:24:30.918Z,5.00
2022-11-05T22:26:57.904Z,4.40
2022-11-05T22:29:24.677Z,4.43
2022-11-05T22:31:51.228Z,5.10
2022-11-05T22:34:19.101Z,4.70
2022-11-05T22:36:45.633Z,22.73
2022-11-05T22:39:12.679Z,13.73
2022-11-05T22:41:39.516Z,8.73
2022-11-05T22:44:06.132Z,6.50
2022-11-05T22:46:32.679Z,4.87
2022-11-05T22:49:00.014Z,5.00
2022-11-05T22:51:30.192Z,4.80
2022-11-05T22:53:57.266Z,5.07
2022-11-05T22:56:25.994Z,5.30
2022-11-05T22:58:52.744Z,4.30
2022-11-05T23:01:20.489Z,4.57
2022-11-05T23:03:48.385Z,4.60
2022-11-05T23:06:16.613Z,4.60
2022-11-05T23:08:44.445Z,4.83
2022-11-05T23:11:15.094Z,4.30
2022-11-05T23:13:41.611Z,5.63
2022-11-05T23:16:08.198Z,4.83
2022-11-05T23:18:34.721Z,6.27
2022-11-05T23:21:01.225Z,5.20
2022-11-05T23:23:27.732Z,5.80
2022-11-05T23:25:57.799Z,5.03
2022-11-05T23:28:24.572Z,4.93
2022-11-05T23:30:51.044Z,5.53
2022-11-05T23:33:17.515Z,5.27
2022-11-05T23:35:44.014Z,6.47
2022-11-05T23:38:10.785Z,7.40
2022-11-05T23:40:37.474Z,5.50
2022-11-05T23:43:05.349Z,4.53
2022-11-05T23:45:32.518Z,7.17
2022-11-05T23:48:06.323Z,4.77
2022-11-05T23:50:37.176Z,5.33
2022-11-05T23:53:06.401Z,6.67
2022-11-05T23:55:32.960Z,5.73
2022-11-05T23:57:59.466Z,7.47
